Time;durP1;ratioP1;P1;durP2;ratioP2;P2;SDS_P1;SDS_P2;PMS_P1;PMS_P2;Temp;Humidity;BMP_temperature;BMP_pressure;BME280_temperature;BME280_humidity;BME280_pressure;Samples;Min_cycle;Max_cycle;Signal;HPM_P1;HPM_P2
2023/01/05 00:01:20;;;;;;;1.27;0.70;;;11.00;99.90;;;;;;5063699;28;20580;-61
2023/01/05 00:03:48;;;;;;;0.70;0.70;;;11.00;99.90;;;;;;5060743;28;20287;-62
2023/01/05 00:06:17;;;;;;;1.40;0.80;;;11.00;99.90;;;;;;5065923;28;20705;-62
2023/01/05 00:08:45;;;;;;;1.80;1.27;;;11.00;99.90;;;;;;5061479;28;20248;-62
2023/01/05 00:22:32;;;;;;;1.23;0.87;;;11.00;99.90;;;;;;5064600;28;20196;-61
2023/01/05 00:25:01;;;;;;;0.60;0.60;;;11.00;99.90;;;;;;5066289;28;20210;-62
2023/01/05 00:27:30;;;;;;;0.50;0.50;;;11.00;99.90;;;;;;5066976;28;20199;-61
2023/01/05 00:29:58;;;;;;;0.60;0.60;;;10.90;99.90;;;;;;5091480;28;20253;-61
2023/01/05 00:32:26;;;;;;;0.40;0.40;;;11.00;99.90;;;;;;5065602;28;20204;-62
2023/01/05 00:34:55;;;;;;;1.07;0.63;;;11.00;99.90;;;;;;5065971;28;20210;-61
2023/01/05 00:37:24;;;;;;;1.03;0.50;;;11.00;99.90;;;;;;5063932;28;20203;-62
2023/01/05 00:39:51;;;;;;;0.80;0.50;;;11.00;99.90;;;;;;5065367;28;20260;-62
2023/01/05 00:42:18;;;;;;;0.40;0.40;;;11.00;99.90;;;;;;5065100;28;20275;-62
2023/01/05 00:44:47;;;;;;;1.30;0.50;;;11.00;99.90;;;;;;5062581;28;20590;-61
2023/01/05 00:47:15;;;;;;;0.60;0.60;;;11.00;99.90;;;;;;5062302;28;20192;-62
2023/01/05 00:49:42;;;;;;;0.67;0.67;;;11.00;99.90;;;;;;5063982;28;20200;-62
2023/01/05 00:52:09;;;;;;;0.53;0.50;;;11.00;99.90;;;;;;5062403;28;20197;-61
2023/01/05 00:54:39;;;;;;;1.40;0.70;;;11.00;99.90;;;;;;5066497;28;20182;-61
2023/01/05 00:57:06;;;;;;;0.77;0.60;;;11.10;99.90;;;;;;5064656;28;20560;-62
2023/01/05 00:59:35;;;;;;;0.50;0.50;;;11.10;99.90;;;;;;5060834;28;20574;-62
2023/01/05 01:02:04;;;;;;;1.30;0.60;;;11.10;99.90;;;;;;5060752;28;20347;-61
2023/01/05 01:04:31;;;;;;;1.90;0.53;;;11.10;99.90;;;;;;5058709;28;20207;-62
2023/01/05 01:06:59;;;;;;;1.17;0.80;;;11.10;99.90;;;;;;5060908;28;20552;-61
2023/01/05 01:09:26;;;;;;;1.87;1.00;;;11.10;99.90;;;;;;5059884;28;20677;-62
2023/01/05 01:11:53;;;;;;;2.43;0.87;;;11.10;99.90;;;;;;5064531;28;20207;-61
2023/01/05 01:14:21;;;;;;;1.37;0.60;;;11.10;99.90;;;;;;5065360;28;20215;-62
2023/01/05 01:16:49;;;;;;;1.13;0.60;;;11.10;99.90;;;;;;5065671;28;20544;-62
2023/01/05 01:19:20;;;;;;;1.17;0.73;;;11.10;99.90;;;;;;5062083;28;20213;-61
2023/01/05 01:21:48;;;;;;;1.03;0.70;;;11.10;99.90;;;;;;5062811;28;20200;-61
2023/01/05 01:24:17;;;;;;;0.70;0.53;;;11.20;99.90;;;;;;5066339;28;20190;-61
2023/01/05 01:26:45;;;;;;;1.67;0.80;;;11.20;99.90;;;;;;5060698;28;20284;-61
2023/01/05 01:29:12;;;;;;;3.93;1.30;;;11.20;99.90;;;;;;5064973;28;20197;-62
2023/01/05 01:31:39;;;;;;;3.20;0.87;;;11.20;99.90;;;;;;5063007;28;20197;-62
2023/01/05 01:34:06;;;;;;;3.40;1.03;;;11.20;99.90;;;;;;5061073;28;20201;-62
2023/01/05 01:36:35;;;;;;;2.57;0.97;;;11.20;99.90;;;;;;5065666;28;20200;-63
2023/01/05 01:39:02;;;;;;;4.20;1.00;;;11.20;99.90;;;;;;5063703;28;20231;-62
2023/01/05 01:41:34;;;;;;;0.90;0.77;;;11.20;99.90;;;;;;5061941;28;20196;-63
2023/01/05 01:44:01;;;;;;;5.27;1.27;;;11.10;99.90;;;;;;5060701;28;20197;-62
2023/01/05 01:46:29;;;;;;;2.73;1.23;;;11.20;99.90;;;;;;5063012;28;20217;-63
2023/01/05 01:48:59;;;;;;;4.87;1.10;;;11.20;99.90;;;;;;5062951;28;20190;-62
2023/01/05 01:51:30;;;;;;;4.30;1.03;;;11.20;99.90;;;;;;5063646;28;20194;-62
2023/01/05 01:54:02;;;;;;;4.30;1.27;;;11.20;99.90;;;;;;5061265;28;20188;-62
2023/01/05 01:56:34;;;;;;;4.37;1.23;;;11.20;99.90;;;;;;5063238;28;20255;-62
2023/01/05 01:59:01;;;;;;;4.30;1.20;;;11.20;99.90;;;;;;5061672;28;20219;-62
2023/01/05 02:01:30;;;;;;;1.03;0.87;;;11.20;99.90;;;;;;5060701;28;20744;-62
2023/01/05 02:03:57;;;;;;;1.80;0.83;;;11.20;99.90;;;;;;5059991;28;20609;-62
2023/01/05 02:06:24;;;;;;;3.07;0.90;;;11.20;99.90;;;;;;5061273;28;20217;-62
2023/01/05 02:08:53;;;;;;;4.17;1.07;;;11.20;99.90;;;;;;5058141;28;20202;-63
2023/01/05 02:11:37;;;;;;;2.30;0.70;;;11.20;99.90;;;;;;5062125;28;20199;-62
2023/01/05 02:14:15;;;;;;;1.23;0.67;;;11.20;99.90;;;;;;5063990;28;20193;-61
2023/01/05 02:16:54;;;;;;;2.20;0.60;;;11.20;99.90;;;;;;5064019;28;20198;-62
2023/01/05 02:19:57;;;;;;;0.90;0.60;;;11.20;99.90;;;;;;5066895;28;20207;-62
2023/01/05 02:22:57;;;;;;;1.50;0.73;;;11.20;99.90;;;;;;5063089;28;20595;-62
2023/01/05 02:25:53;;;;;;;1.70;0.73;;;11.20;99.90;;;;;;5070650;28;20298;-62
2023/01/05 02:28:43;;;;;;;1.63;0.80;;;11.20;99.90;;;;;;5069427;28;20198;-62
2023/01/05 02:31:16;;;;;;;1.83;1.00;;;11.20;99.90;;;;;;5065169;28;20205;-63
2023/01/05 02:34:09;;;;;;;1.30;0.77;;;11.30;99.90;;;;;;5067975;28;20200;-62
2023/01/05 02:36:42;;;;;;;2.90;0.90;;;11.20;99.90;;;;;;5061951;28;20200;-62
2023/01/05 02:39:14;;;;;;;0.87;0.70;;;11.20;99.90;;;;;;5063573;28;20227;-62
2023/01/05 02:41:48;;;;;;;0.70;0.70;;;11.20;99.90;;;;;;5068475;28;20212;-61
2023/01/05 02:44:17;;;;;;;2.63;0.93;;;11.20;99.90;;;;;;5064012;28;20260;-62
2023/01/05 02:46:47;;;;;;;1.10;0.70;;;11.30;99.90;;;;;;5064052;28;20222;-63
2023/01/05 02:49:17;;;;;;;1.83;0.70;;;11.20;99.90;;;;;;5065647;28;20188;-62
2023/01/05 02:51:49;;;;;;;1.33;0.70;;;11.20;99.90;;;;;;5066637;28;20672;-62
2023/01/05 02:54:22;;;;;;;2.87;0.93;;;11.20;99.90;;;;;;5064425;28;20195;-62
2023/01/05 02:56:54;;;;;;;1.87;0.90;;;11.20;99.90;;;;;;5064115;28;20208;-63
2023/01/05 02:59:27;;;;;;;4.37;1.00;;;11.20;99.90;;;;;;5065196;28;20306;-62
2023/01/05 03:01:59;;;;;;;2.00;0.80;;;11.20;99.90;;;;;;5066095;28;20247;-62
2023/01/05 03:04:31;;;;;;;4.17;1.30;;;11.20;99.90;;;;;;5060942;28;20208;-62
2023/01/05 03:07:03;;;;;;;3.37;0.80;;;11.20;99.90;;;;;;5028921;28;20200;-63
2023/01/05 03:09:35;;;;;;;2.27;0.90;;;11.20;99.90;;;;;;5028905;28;20821;-62
2023/01/05 03:14:57;;;;;;;2.37;1.00;;;11.20;99.90;;;;;;5027984;28;20194;-61
2023/01/05 03:17:36;;;;;;;4.43;1.00;;;11.10;99.90;;;;;;5029604;28;20670;-62
2023/01/05 03:20:05;;;;;;;3.17;0.60;;;11.10;99.90;;;;;;5023255;28;20209;-61
2023/01/05 03:36:52;;;;;;;1.43;0.90;;;11.10;99.90;;;;;;5044587;28;20276;-63
2023/01/05 03:39:25;;;;;;;0.73;0.60;;;11.10;99.90;;;;;;5023110;28;20232;-63
2023/01/05 03:41:53;;;;;;;0.80;0.80;;;11.10;99.90;;;;;;5030789;28;20550;-63
2023/01/05 03:44:22;;;;;;;0.90;0.60;;;11.10;99.90;;;;;;5027643;28;20292;-61
2023/01/05 03:46:49;;;;;;;1.03;0.57;;;11.10;99.90;;;;;;5025079;28;20199;-62
2023/01/05 03:49:19;;;;;;;0.60;0.40;;;11.10;99.90;;;;;;5027861;28;20211;-61
2023/01/05 03:51:46;;;;;;;1.13;0.60;;;11.20;99.90;;;;;;5030868;28;20596;-61
2023/01/05 03:54:13;;;;;;;1.43;0.67;;;11.20;99.90;;;;;;5023326;28;20291;-61
2023/01/05 03:56:41;;;;;;;0.40;0.40;;;11.20;99.90;;;;;;5029189;28;20297;-62
2023/01/05 03:59:09;;;;;;;1.90;0.43;;;11.20;99.90;;;;;;5028505;28;20201;-62
2023/01/05 04:01:38;;;;;;;2.40;0.80;;;11.20;99.90;;;;;;5024616;28;20202;-61
2023/01/05 04:04:05;;;;;;;0.40;0.40;;;11.20;99.90;;;;;;5026772;28;20203;-62
2023/01/05 04:06:34;;;;;;;0.43;0.40;;;11.20;99.90;;;;;;5058544;28;20308;-61
2023/01/05 04:09:03;;;;;;;0.43;0.37;;;12.90;99.90;;;;;;5060254;28;20711;-62
2023/01/05 04:11:33;;;;;;;0.90;0.60;;;11.30;99.90;;;;;;5062282;28;20213;-61
2023/01/05 04:14:04;;;;;;;0.37;0.33;;;11.30;99.90;;;;;;5062115;28;20643;-62
2023/01/05 04:16:34;;;;;;;0.50;0.50;;;11.30;99.90;;;;;;5062506;28;20224;-62
2023/01/05 04:19:07;;;;;;;0.30;0.30;;;11.30;99.90;;;;;;5060705;28;20209;-62
2023/01/05 04:21:36;;;;;;;0.40;0.40;;;11.30;99.90;;;;;;5063374;28;20230;-62
2023/01/05 04:24:05;;;;;;;0.50;0.50;;;11.30;99.90;;;;;;5064985;28;20191;-62
2023/01/05 04:26:36;;;;;;;0.53;0.30;;;11.30;99.90;;;;;;5066585;28;20212;-63
2023/01/05 04:29:04;;;;;;;0.30;0.30;;;11.30;99.90;;;;;;5061198;28;20197;-62
2023/01/05 04:31:33;;;;;;;0.47;0.40;;;11.30;99.90;;;;;;5064798;28;20226;-62
2023/01/05 04:34:01;;;;;;;0.30;0.30;;;11.30;99.90;;;;;;5098378;28;20304;-61
2023/01/05 04:36:28;;;;;;;0.30;0.30;;;11.30;99.90;;;;;;5061813;28;20203;-62
2023/01/05 04:38:59;;;;;;;0.50;0.50;;;11.30;99.90;;;;;;5062733;28;20202;-62
2023/01/05 04:41:26;;;;;;;0.57;0.57;;;11.30;99.90;;;;;;5063509;28;20202;-62
2023/01/05 04:43:54;;;;;;;0.50;0.50;;;11.30;99.90;;;;;;5063867;28;20626;-62
2023/01/05 04:46:21;;;;;;;0.30;0.30;;;11.30;99.90;;;;;;5062806;28;20270;-62
2023/01/05 04:48:51;;;;;;;0.47;0.30;;;11.40;99.90;;;;;;5061950;28;20247;-61
2023/01/05 04:51:20;;;;;;;0.40;0.40;;;11.40;99.90;;;;;;5064497;28;20215;-62
2023/01/05 04:53:48;;;;;;;0.40;0.40;;;11.30;99.90;;;;;;5066080;28;20267;-61
2023/01/05 04:56:19;;;;;;;0.77;0.50;;;11.40;99.90;;;;;;5064263;28;20201;-62
2023/01/05 04:58:48;;;;;;;0.50;0.50;;;11.30;99.90;;;;;;5059986;28;20199;-61
2023/01/05 05:01:15;;;;;;;0.40;0.40;;;11.30;99.90;;;;;;5061609;28;20263;-63
2023/01/05 05:03:47;;;;;;;0.40;0.40;;;11.30;99.90;;;;;;5092774;28;20230;-62
2023/01/05 05:06:18;;;;;;;1.03;0.80;;;11.30;99.90;;;;;;5062369;28;20236;-62
2023/01/05 05:08:47;;;;;;;1.43;0.67;;;11.30;99.90;;;;;;5096926;28;20303;-63
2023/01/05 05:11:15;;;;;;;0.50;0.50;;;11.20;99.90;;;;;;5061857;28;20192;-63
2023/01/05 05:13:47;;;;;;;1.40;0.77;;;11.20;99.90;;;;;;5062085;28;20569;-62
2023/01/05 05:16:14;;;;;;;1.07;0.70;;;11.10;99.90;;;;;;5065309;28;20227;-62
2023/01/05 05:18:44;;;;;;;0.63;0.63;;;11.00;99.90;;;;;;5061113;28;20195;-61
2023/01/05 05:21:16;;;;;;;0.57;0.50;;;11.00;99.90;;;;;;5062689;28;20215;-61
2023/01/05 05:23:44;;;;;;;0.80;0.50;;;11.00;99.90;;;;;;5065751;28;20192;-62
2023/01/05 05:26:11;;;;;;;0.40;0.40;;;11.00;99.90;;;;;;5064303;28;20284;-61
2023/01/05 05:28:38;;;;;;;0.97;0.60;;;11.00;99.90;;;;;;5065464;28;20201;-62
2023/01/05 05:31:07;;;;;;;0.70;0.70;;;10.90;99.90;;;;;;5064658;28;20188;-62
2023/01/05 05:33:36;;;;;;;0.80;0.70;;;10.90;99.90;;;;;;5063552;28;20209;-61
2023/01/05 05:36:04;;;;;;;1.87;0.60;;;10.90;99.90;;;;;;5063499;28;20191;-61
2023/01/05 05:38:31;;;;;;;0.90;0.80;;;10.90;99.90;;;;;;5058796;28;20732;-62
2023/01/05 05:40:58;;;;;;;2.00;0.70;;;10.90;99.90;;;;;;5066043;28;20522;-62
2023/01/05 05:43:25;;;;;;;1.80;1.00;;;10.90;99.90;;;;;;5064933;28;20196;-62
2023/01/05 05:45:52;;;;;;;2.33;0.90;;;10.80;99.90;;;;;;5057420;28;20694;-61
2023/01/05 05:48:21;;;;;;;2.53;0.70;;;10.80;99.90;;;;;;5065171;28;20199;-63
2023/01/05 05:50:48;;;;;;;1.60;0.70;;;10.80;99.90;;;;;;5066096;28;20190;-63
2023/01/05 05:53:15;;;;;;;2.43;0.80;;;10.80;99.90;;;;;;5064776;28;20194;-61
2023/01/05 05:55:45;;;;;;;1.50;0.97;;;10.80;99.90;;;;;;5067053;28;20607;-62
2023/01/05 05:58:12;;;;;;;3.53;0.90;;;10.80;99.90;;;;;;5070062;28;20250;-62
2023/01/05 06:00:39;;;;;;;3.50;1.07;;;11.00;99.90;;;;;;5062736;28;20306;-61
2023/01/05 06:03:06;;;;;;;1.27;0.50;;;10.80;99.90;;;;;;5068493;28;20195;-62
2023/01/05 06:05:35;;;;;;;2.17;0.90;;;10.80;99.90;;;;;;5063616;28;20262;-62
2023/01/05 06:08:02;;;;;;;4.43;1.47;;;10.80;99.90;;;;;;5065957;28;20205;-62
2023/01/05 06:10:29;;;;;;;3.30;1.07;;;10.80;99.90;;;;;;5096081;28;20763;-62
2023/01/05 06:12:57;;;;;;;3.57;0.90;;;10.80;99.90;;;;;;5065308;28;20631;-63
2023/01/05 06:15:24;;;;;;;3.90;1.40;;;10.80;99.90;;;;;;5063702;28;20222;-62
2023/01/05 06:17:51;;;;;;;3.37;1.00;;;10.70;99.90;;;;;;5066263;28;20270;-62
2023/01/05 06:20:19;;;;;;;2.43;1.00;;;10.70;99.90;;;;;;5060050;28;20209;-62
2023/01/05 06:22:47;;;;;;;4.90;1.20;;;10.70;99.90;;;;;;5064250;28;20231;-62
2023/01/05 06:25:14;;;;;;;4.57;1.47;;;10.70;99.90;;;;;;5070788;28;20192;-62
2023/01/05 06:27:41;;;;;;;3.33;1.00;;;10.70;99.90;;;;;;5064950;28;20243;-62
2023/01/05 06:30:09;;;;;;;1.83;1.13;;;10.70;99.90;;;;;;5069294;28;20660;-62
2023/01/05 06:32:37;;;;;;;4.10;1.13;;;10.70;99.90;;;;;;5068687;28;20642;-62
2023/01/05 06:35:04;;;;;;;4.60;1.47;;;10.70;99.90;;;;;;5065037;28;20704;-63
2023/01/05 06:37:31;;;;;;;3.30;1.17;;;10.70;99.90;;;;;;5070312;28;20189;-63
2023/01/05 06:40:00;;;;;;;1.53;1.00;;;10.60;99.90;;;;;;5070495;28;20195;-62
2023/01/05 06:42:27;;;;;;;1.63;0.97;;;10.60;99.90;;;;;;5063391;28;20200;-62
2023/01/05 06:44:55;;;;;;;1.77;0.80;;;10.60;99.90;;;;;;5065027;28;20295;-62
2023/01/05 06:47:22;;;;;;;1.87;1.00;;;10.70;99.90;;;;;;5067173;28;20215;-62
2023/01/05 06:49:49;;;;;;;3.50;1.03;;;10.70;99.90;;;;;;5064389;28;20211;-61
2023/01/05 06:52:16;;;;;;;1.80;1.17;;;10.70;99.90;;;;;;5069848;28;20194;-63
2023/01/05 06:54:43;;;;;;;3.03;0.97;;;10.70;99.90;;;;;;5063564;28;20299;-62
2023/01/05 06:57:12;;;;;;;2.30;0.90;;;10.70;99.90;;;;;;5065504;28;20193;-62
2023/01/05 06:59:39;;;;;;;2.07;1.00;;;10.70;99.90;;;;;;5068140;28;20191;-62
2023/01/05 07:02:06;;;;;;;0.83;0.80;;;10.70;99.90;;;;;;5061392;28;20215;-61
2023/01/05 07:04:34;;;;;;;1.07;0.80;;;10.60;99.90;;;;;;5065397;28;20200;-63
2023/01/05 07:07:01;;;;;;;1.27;0.83;;;10.60;99.90;;;;;;5070530;28;20221;-63
2023/01/05 07:09:28;;;;;;;2.13;1.07;;;10.60;99.90;;;;;;5056190;28;20187;-62
2023/01/05 07:11:55;;;;;;;1.47;0.90;;;10.70;99.90;;;;;;5065040;28;20197;-62
2023/01/05 07:14:24;;;;;;;0.80;0.80;;;10.60;99.90;;;;;;5060651;28;20205;-61
2023/01/05 07:16:51;;;;;;;1.03;0.90;;;10.60;99.90;;;;;;5060685;28;20196;-61
2023/01/05 07:19:18;;;;;;;1.70;0.80;;;10.60;99.90;;;;;;5063028;28;20195;-61
2023/01/05 07:21:45;;;;;;;0.80;0.80;;;10.60;99.90;;;;;;5061851;28;20774;-61
2023/01/05 07:24:12;;;;;;;1.70;1.03;;;10.60;99.90;;;;;;5064658;28;20195;-62
2023/01/05 07:26:39;;;;;;;0.80;0.50;;;10.70;99.90;;;;;;5065610;28;20194;-62
2023/01/05 07:29:06;;;;;;;1.57;0.93;;;10.60;99.90;;;;;;5059886;28;20201;-63
2023/01/05 07:31:35;;;;;;;0.83;0.67;;;10.60;99.90;;;;;;5065802;28;20196;-61
2023/01/05 07:34:02;;;;;;;4.57;0.70;;;10.60;99.90;;;;;;5061803;28;20218;-62
2023/01/05 07:36:29;;;;;;;2.23;0.67;;;10.50;99.90;;;;;;5064085;28;20197;-62
2023/01/05 07:38:56;;;;;;;0.80;0.80;;;10.50;99.90;;;;;;5067580;28;20204;-61
2023/01/05 07:41:23;;;;;;;0.77;0.60;;;10.50;99.90;;;;;;5066142;28;20213;-61
2023/01/05 07:43:50;;;;;;;1.77;0.90;;;10.40;99.90;;;;;;5063935;28;20486;-62
2023/01/05 07:46:18;;;;;;;1.43;0.70;;;10.30;99.90;;;;;;5063001;28;20204;-61
2023/01/05 07:48:46;;;;;;;1.17;0.90;;;10.30;99.90;;;;;;5062621;28;20196;-62
2023/01/05 07:51:13;;;;;;;1.47;0.50;;;10.30;99.90;;;;;;5061731;28;20633;-61
2023/01/05 07:53:40;;;;;;;1.67;0.60;;;10.40;99.90;;;;;;5062495;28;20227;-60
2023/01/05 07:56:10;;;;;;;1.47;0.70;;;10.30;99.90;;;;;;5057901;28;20212;-62
2023/01/05 07:58:37;;;;;;;1.33;0.60;;;10.30;99.90;;;;;;5061976;28;20203;-62
2023/01/05 08:01:05;;;;;;;2.07;0.70;;;10.30;99.90;;;;;;5062444;28;20296;-61
2023/01/05 08:03:32;;;;;;;2.10;0.80;;;10.30;99.90;;;;;;5058203;28;20700;-61
2023/01/05 08:06:06;;;;;;;1.20;0.90;;;10.30;99.90;;;;;;5058869;28;20244;-62
2023/01/05 08:08:33;;;;;;;2.87;0.97;;;10.30;99.90;;;;;;5057701;28;20257;-61
2023/01/05 08:11:03;;;;;;;0.80;0.80;;;10.30;99.90;;;;;;5058428;28;20197;-61
2023/01/05 08:16:15;;;;;;;0.90;0.90;;;10.30;99.90;;;;;;5060081;28;20557;-61
2023/01/05 08:18:42;;;;;;;0.97;0.70;;;10.30;99.90;;;;;;5057487;28;20595;-62
2023/01/05 08:21:13;;;;;;;0.97;0.90;;;10.30;99.90;;;;;;5060186;28;20228;-63
2023/01/05 08:23:41;;;;;;;3.30;0.97;;;10.30;99.90;;;;;;5061244;28;20232;-61
2023/01/05 08:26:11;;;;;;;1.10;1.00;;;10.30;99.90;;;;;;5060501;28;20197;-62
2023/01/05 08:28:39;;;;;;;1.13;1.10;;;10.30;99.90;;;;;;5063693;28;20205;-61
2023/01/05 08:31:07;;;;;;;1.43;1.10;;;10.40;99.90;;;;;;5060144;28;20199;-61
2023/01/05 08:33:35;;;;;;;1.53;1.07;;;10.30;99.90;;;;;;5060751;28;20538;-61
2023/01/05 08:36:02;;;;;;;1.47;1.10;;;10.40;99.90;;;;;;5060294;28;20186;-62
2023/01/05 08:38:31;;;;;;;0.90;0.90;;;10.40;99.90;;;;;;5061964;28;20199;-62
2023/01/05 08:40:59;;;;;;;1.43;1.30;;;10.40;99.90;;;;;;5062623;28;20271;-61
2023/01/05 08:43:26;;;;;;;1.10;1.10;;;10.40;99.90;;;;;;5064468;28;20200;-61
2023/01/05 08:45:53;;;;;;;1.30;1.20;;;10.40;99.90;;;;;;5055158;28;20211;-62
2023/01/05 08:48:20;;;;;;;1.80;1.10;;;10.40;99.90;;;;;;5059380;28;20238;-62
2023/01/05 08:50:48;;;;;;;1.50;1.30;;;10.40;99.90;;;;;;5060767;28;20230;-62
2023/01/05 08:53:15;;;;;;;1.30;1.20;;;10.40;99.90;;;;;;5060510;28;20210;-61
2023/01/05 08:55:43;;;;;;;2.33;1.20;;;10.40;99.90;;;;;;5057501;28;20197;-61
2023/01/05 08:58:10;;;;;;;1.23;1.10;;;10.40;99.90;;;;;;5059844;28;20610;-61
2023/01/05 09:00:38;;;;;;;1.27;1.13;;;10.40;99.90;;;;;;5055176;28;20250;-62
2023/01/05 09:03:05;;;;;;;2.23;1.27;;;10.40;99.90;;;;;;5055644;28;20225;-62
2023/01/05 09:05:32;;;;;;;5.13;1.17;;;10.30;99.90;;;;;;5060010;28;20224;-62
2023/01/05 09:07:59;;;;;;;1.17;0.97;;;10.30;99.90;;;;;;5064606;28;20197;-62
2023/01/05 09:10:27;;;;;;;3.80;1.30;;;10.30;99.90;;;;;;5053465;28;20192;-61
2023/01/05 09:12:55;;;;;;;3.00;1.00;;;10.30;99.90;;;;;;5060218;28;20219;-61
2023/01/05 09:15:22;;;;;;;1.83;1.10;;;10.30;99.90;;;;;;5056791;28;20196;-61
2023/01/05 09:17:49;;;;;;;3.83;2.07;;;10.30;99.90;;;;;;5061395;28;20199;-62
2023/01/05 09:20:16;;;;;;;3.23;1.67;;;10.30;99.90;;;;;;5059139;28;20266;-61
2023/01/05 09:22:44;;;;;;;2.60;1.30;;;10.30;99.90;;;;;;5065179;28;20315;-62
2023/01/05 09:25:11;;;;;;;1.10;1.00;;;10.30;99.90;;;;;;5064997;28;20248;-61
2023/01/05 09:27:38;;;;;;;0.80;0.80;;;10.30;99.90;;;;;;5069928;28;20192;-61
2023/01/05 09:30:08;;;;;;;2.83;1.40;;;10.40;99.90;;;;;;5066195;28;20190;-61
2023/01/05 09:32:37;;;;;;;2.47;1.20;;;10.40;99.90;;;;;;5066562;28;20226;-62
2023/01/05 09:35:04;;;;;;;1.60;1.10;;;10.40;99.90;;;;;;5065333;28;20193;-60
2023/01/05 09:37:31;;;;;;;1.40;1.27;;;10.40;99.90;;;;;;5065345;28;20208;-61
2023/01/05 09:39:59;;;;;;;1.77;1.10;;;10.40;99.90;;;;;;5064956;28;20195;-61
2023/01/05 09:42:29;;;;;;;1.73;1.10;;;10.40;99.90;;;;;;5067135;28;20282;-61
2023/01/05 09:45:02;;;;;;;1.53;0.90;;;10.40;99.90;;;;;;5060204;28;20203;-61
2023/01/05 09:47:36;;;;;;;2.77;1.37;;;10.40;99.90;;;;;;5061172;28;20304;-62
2023/01/05 09:50:06;;;;;;;0.80;0.80;;;10.50;99.90;;;;;;5068937;28;20193;-61
2023/01/05 09:52:35;;;;;;;1.53;0.90;;;10.40;99.90;;;;;;5065344;28;20569;-61
2023/01/05 09:55:04;;;;;;;1.77;1.50;;;10.50;99.90;;;;;;5067794;28;20201;-61
2023/01/05 09:57:31;;;;;;;3.97;1.10;;;10.50;99.90;;;;;;5063690;28;20223;-61
2023/01/05 10:00:03;;;;;;;2.10;1.37;;;10.50;99.90;;;;;;5061106;28;20217;-62
2023/01/05 10:02:44;;;;;;;1.53;1.43;;;10.50;99.90;;;;;;5067264;28;20227;-62
2023/01/05 10:05:13;;;;;;;1.47;1.07;;;10.50;99.90;;;;;;5065429;28;20287;-62
2023/01/05 10:07:44;;;;;;;1.37;1.20;;;10.50;99.90;;;;;;5066038;28;20203;-61
2023/01/05 10:10:20;;;;;;;1.73;0.90;;;10.50;99.90;;;;;;5063751;28;20397;-61
2023/01/05 10:13:01;;;;;;;1.37;1.07;;;10.50;99.90;;;;;;5065314;28;20193;-62
2023/01/05 10:15:32;;;;;;;1.17;0.80;;;10.50;99.90;;;;;;5065364;28;20180;-61
2023/01/05 10:18:08;;;;;;;1.23;0.90;;;10.50;99.90;;;;;;5063650;28;20199;-61
2023/01/05 10:20:46;;;;;;;1.47;0.87;;;10.50;99.90;;;;;;5062584;28;20874;-61
2023/01/05 10:23:35;;;;;;;2.03;1.10;;;10.50;99.90;;;;;;5065796;28;20206;-61
2023/01/05 10:26:09;;;;;;;0.70;0.70;;;10.50;99.90;;;;;;5063032;28;20215;-62
2023/01/05 10:28:42;;;;;;;0.80;0.70;;;10.50;99.90;;;;;;5062446;28;20204;-61
2023/01/05 10:31:19;;;;;;;0.53;0.53;;;10.50;99.90;;;;;;5066026;28;20198;-61
2023/01/05 10:33:51;;;;;;;0.70;0.70;;;10.40;99.90;;;;;;5049539;28;20228;-62
2023/01/05 10:36:35;;;;;;;1.37;0.80;;;10.40;99.90;;;;;;5064421;28;20219;-62
2023/01/05 10:39:12;;;;;;;0.80;0.80;;;10.40;99.90;;;;;;5063930;28;20201;-62
2023/01/05 10:41:48;;;;;;;0.70;0.70;;;10.40;99.90;;;;;;5059941;28;20215;-62
2023/01/05 10:44:39;;;;;;;0.63;0.60;;;10.30;99.90;;;;;;5065283;28;20215;-62
2023/01/05 10:47:09;;;;;;;0.80;0.80;;;10.30;99.90;;;;;;5062996;28;20196;-62
2023/01/05 10:49:39;;;;;;;0.50;0.50;;;10.30;99.90;;;;;;5063285;28;20245;-62
2023/01/05 10:52:12;;;;;;;1.07;0.83;;;10.30;99.90;;;;;;5067216;28;20193;-61
2023/01/05 10:54:43;;;;;;;1.50;0.70;;;10.30;99.90;;;;;;5062386;28;20214;-61
2023/01/05 10:57:38;;;;;;;2.13;1.07;;;10.30;99.90;;;;;;5066174;28;20273;-61
2023/01/05 11:00:12;;;;;;;1.47;1.20;;;10.30;99.90;;;;;;5064208;28;20205;-61
2023/01/05 11:02:41;;;;;;;1.23;1.03;;;10.30;99.90;;;;;;5060913;28;20198;-60
2023/01/05 11:05:26;;;;;;;3.20;1.20;;;10.30;99.90;;;;;;5062816;28;20305;-61
2023/01/05 11:07:55;;;;;;;2.03;1.00;;;10.30;99.90;;;;;;5061776;28;20197;-61
2023/01/05 11:10:26;;;;;;;0.93;0.80;;;10.20;99.90;;;;;;5060086;28;20211;-61
2023/01/05 11:13:01;;;;;;;1.80;0.70;;;10.30;99.90;;;;;;5065236;28;20196;-62
2023/01/05 11:15:30;;;;;;;0.90;0.80;;;10.20;99.90;;;;;;5058466;28;20506;-62
2023/01/05 11:18:01;;;;;;;0.90;0.70;;;10.20;99.90;;;;;;5061953;28;20674;-61
2023/01/05 11:20:29;;;;;;;3.93;1.33;;;10.20;99.90;;;;;;5062124;28;20661;-62
2023/01/05 11:22:57;;;;;;;2.27;1.10;;;10.10;99.90;;;;;;5059745;28;20217;-62
2023/01/05 11:25:29;;;;;;;1.43;0.97;;;10.10;99.90;;;;;;5066898;28;20533;-62
2023/01/05 11:28:07;;;;;;;1.30;1.00;;;10.00;99.90;;;;;;5067363;28;20198;-62
2023/01/05 11:30:34;;;;;;;1.10;0.90;;;10.10;99.90;;;;;;5058197;28;20196;-62
2023/01/05 11:33:02;;;;;;;1.30;1.00;;;10.00;99.90;;;;;;5065441;28;20560;-62
2023/01/05 11:35:36;;;;;;;1.10;0.87;;;10.10;99.90;;;;;;5058245;28;20196;-62
2023/01/05 11:38:04;;;;;;;0.70;0.70;;;10.10;99.90;;;;;;5060778;28;20701;-61
2023/01/05 11:40:34;;;;;;;1.27;0.97;;;10.10;99.90;;;;;;5062382;28;20617;-62
2023/01/05 11:43:09;;;;;;;4.17;1.20;;;11.30;99.90;;;;;;5062624;28;20622;-63
2023/01/05 11:45:45;;;;;;;0.80;0.80;;;10.10;99.90;;;;;;5064027;28;20198;-61
2023/01/05 11:48:19;;;;;;;2.87;0.90;;;10.10;99.90;;;;;;5062334;28;20671;-62
2023/01/05 11:50:50;;;;;;;0.90;0.80;;;10.10;99.90;;;;;;5059910;28;20208;-61
2023/01/05 11:53:37;;;;;;;0.97;0.67;;;10.10;99.90;;;;;;5062624;28;20192;-63
2023/01/05 11:56:06;;;;;;;1.23;0.90;;;10.10;99.90;;;;;;5061116;28;20210;-63
2023/01/05 11:58:34;;;;;;;0.70;0.70;;;10.10;99.90;;;;;;5061829;28;20193;-62
2023/01/05 12:01:43;;;;;;;1.60;1.43;;;10.10;99.90;;;;;;5059420;28;20193;-61
2023/01/05 12:04:25;;;;;;;11.07;6.90;;;10.10;99.90;;;;;;5059764;28;20201;-61
2023/01/05 12:07:21;;;;;;;4.97;3.53;;;10.20;99.90;;;;;;5062323;28;20250;-62
2023/01/05 12:09:55;;;;;;;1.87;1.77;;;10.20;99.90;;;;;;5062672;28;20196;-62
2023/01/05 12:12:36;;;;;;;1.67;1.10;;;10.10;99.90;;;;;;5060292;28;20195;-61
2023/01/05 12:15:40;;;;;;;1.27;0.70;;;10.10;99.90;;;;;;5057505;28;20665;-62
2023/01/05 12:18:23;;;;;;;0.80;0.80;;;10.10;99.90;;;;;;4977624;28;20230;-61
2023/01/05 12:20:56;;;;;;;0.80;0.77;;;10.10;99.90;;;;;;5050969;28;20617;-62
2023/01/05 12:23:53;;;;;;;0.70;0.70;;;9.00;99.90;;;;;;5065671;28;20311;-62
2023/01/05 12:26:26;;;;;;;1.10;0.80;;;10.20;99.90;;;;;;5059894;28;20211;-61
2023/01/05 12:29:26;;;;;;;0.70;0.70;;;10.20;99.90;;;;;;5064227;28;20189;-61
2023/01/05 12:32:14;;;;;;;1.00;0.90;;;10.30;99.90;;;;;;5049462;28;20233;-62
2023/01/05 12:35:07;;;;;;;1.00;0.90;;;10.30;99.90;;;;;;5066217;28;20239;-61
2023/01/05 12:37:44;;;;;;;1.70;0.80;;;10.30;99.90;;;;;;5064424;28;20540;-61
2023/01/05 12:40:35;;;;;;;0.70;0.70;;;10.50;99.90;;;;;;5058505;28;20196;-63
2023/01/05 12:43:07;;;;;;;0.80;0.70;;;10.30;99.90;;;;;;5056245;28;20233;-62
2023/01/05 12:46:04;;;;;;;0.63;0.63;;;10.30;99.90;;;;;;5058070;28;20266;-62
2023/01/05 12:48:35;;;;;;;0.83;0.80;;;10.30;99.90;;;;;;5060595;28;20192;-63
2023/01/05 12:51:10;;;;;;;0.93;0.70;;;10.20;99.90;;;;;;5062867;28;20528;-62
2023/01/05 12:53:51;;;;;;;0.90;0.90;;;10.20;99.90;;;;;;5055372;28;20536;-61
2023/01/05 12:56:25;;;;;;;0.80;0.80;;;10.10;99.90;;;;;;5064455;28;20198;-61
2023/01/05 12:59:19;;;;;;;0.90;0.50;;;10.10;99.90;;;;;;5062247;28;20192;-61
2023/01/05 13:01:59;;;;;;;0.80;0.80;;;10.10;99.90;;;;;;5043326;28;20661;-62
2023/01/05 13:04:42;;;;;;;1.60;0.80;;;10.10;99.90;;;;;;5061227;28;20190;-63
2023/01/05 13:07:15;;;;;;;0.90;0.87;;;10.10;99.90;;;;;;5059118;28;20201;-62
2023/01/05 13:09:44;;;;;;;1.60;0.90;;;10.00;99.90;;;;;;5062557;28;20673;-61
2023/01/05 13:12:13;;;;;;;1.00;0.90;;;10.00;99.90;;;;;;5064835;28;20222;-62
2023/01/05 13:14:51;;;;;;;1.67;0.80;;;9.90;99.90;;;;;;5055982;28;20678;-62
2023/01/05 13:17:26;;;;;;;1.10;1.00;;;9.90;99.90;;;;;;5056691;28;20655;-61
2023/01/05 13:20:00;;;;;;;0.73;0.73;;;9.90;99.90;;;;;;5059532;28;20195;-62
2023/01/05 13:22:32;;;;;;;0.70;0.70;;;9.90;99.90;;;;;;5058296;28;20722;-61
2023/01/05 13:25:04;;;;;;;0.60;0.60;;;9.90;99.90;;;;;;5065028;28;20196;-62
2023/01/05 13:27:33;;;;;;;0.73;0.73;;;9.80;99.90;;;;;;5065483;28;20188;-61
2023/01/05 13:30:02;;;;;;;1.83;0.70;;;9.80;99.90;;;;;;5055521;28;20208;-61
2023/01/05 13:32:42;;;;;;;2.60;1.10;;;9.80;99.90;;;;;;5060459;28;20192;-61
2023/01/05 13:35:26;;;;;;;1.00;1.00;;;9.70;99.90;;;;;;5059405;28;20204;-61
2023/01/05 13:38:30;;;;;;;0.73;0.70;;;9.70;99.90;;;;;;5062862;28;20204;-62
2023/01/05 13:41:23;;;;;;;1.27;0.93;;;9.60;99.90;;;;;;5055857;28;20708;-62